Yangon, Burma
Current Conditions -  °F | °C
As of 12:30 PM on Saturday 20 Dec 2014 (Local Time) from VYYY Reporting Station
Few Clouds Few Clouds  
Wind Chill: 86°   Ceiling: Unl
Heat Index: 95°   Visibility: 5mi
Dew Point: 75°   Wind: 6mph
Humidity: 70%   Direction: 330°NNW
Pressure: 29.91"   Gusts: NA
Location:  16.79°N, 96.15°E
Report Text: VYYY 200630Z 33005KT 8000 R21/2000N FEW250 30/24 Q1013 NOSIG
Loading
Personal Weather Stations






























Interactive Weather Map New forecast layout! Learn more

10-Day Weather Forecast

Advertisements
Track Severe Weather on mobile